sensor_id;sensor_type;location;lat;lon;timestamp;pressure;altitude;pressure_sealevel;temperature;humidity
4123;BME280;2075;51.062;6.920;2024-02-26T00:02:43;94722.78;;;-144.48;78.32
4123;BME280;2075;51.062;6.920;2024-02-26T00:05:36;94712.63;;;-144.48;78.52
4123;BME280;2075;51.062;6.920;2024-02-26T00:08:24;94708.56;;;-144.48;79.86
4123;BME280;2075;51.062;6.920;2024-02-26T00:11:09;94696.38;;;-144.48;79.76
4123;BME280;2075;51.062;6.920;2024-02-26T00:14:03;94728.88;;;-144.48;79.87
4123;BME280;2075;51.062;6.920;2024-02-26T00:16:48;94743.09;;;-144.48;81.44
4123;BME280;2075;51.062;6.920;2024-02-26T00:19:35;94724.81;;;-144.48;82.28
4123;BME280;2075;51.062;6.920;2024-02-26T00:22:22;94700.44;;;-144.48;81.92
4123;BME280;2075;51.062;6.920;2024-02-26T00:27:46;94716.69;;;-144.48;82.12
4123;BME280;2075;51.062;6.920;2024-02-26T00:30:32;94676.06;;;-144.48;82.46
4123;BME280;2075;51.062;6.920;2024-02-26T00:33:18;94716.69;;;-144.48;83.44
4123;BME280;2075;51.062;6.920;2024-02-26T00:36:04;94755.31;;;-144.48;83.92
4123;BME280;2075;51.062;6.920;2024-02-26T00:38:52;94730.91;;;-144.48;87.40
4123;BME280;2075;51.062;6.920;2024-02-26T00:41:38;94755.31;;;-144.48;87.42
4123;BME280;2075;51.062;6.920;2024-02-26T00:44:24;94546.03;;;-144.48;87.21
4123;BME280;2075;51.062;6.920;2024-02-26T00:47:10;94757.34;;;-144.48;86.76
4123;BME280;2075;51.062;6.920;2024-02-26T00:49:56;94732.94;;;-144.48;87.72
4123;BME280;2075;51.062;6.920;2024-02-26T00:52:41;94765.47;;;-144.48;89.63
4123;BME280;2075;51.062;6.920;2024-02-26T00:55:30;94741.06;;;-144.48;90.57
4123;BME280;2075;51.062;6.920;2024-02-26T00:58:26;94771.56;;;-144.48;91.65
4123;BME280;2075;51.062;6.920;2024-02-26T01:01:12;94761.41;;;-144.48;90.06
4123;BME280;2075;51.062;6.920;2024-02-26T01:03:58;94745.13;;;-144.48;89.05
4123;BME280;2075;51.062;6.920;2024-02-26T01:06:46;94763.44;;;-144.48;89.22
4123;BME280;2075;51.062;6.920;2024-02-26T01:09:34;94716.69;;;-144.48;88.93
4123;BME280;2075;51.062;6.920;2024-02-26T01:12:21;94767.50;;;-144.48;89.40
4123;BME280;2075;51.062;6.920;2024-02-26T01:15:06;94724.81;;;-144.48;90.37
4123;BME280;2075;51.062;6.920;2024-02-26T01:17:52;94718.72;;;-144.48;89.96
4123;BME280;2075;51.062;6.920;2024-02-26T01:20:37;94777.66;;;-144.48;93.46
4123;BME280;2075;51.062;6.920;2024-02-26T01:23:22;94761.41;;;-144.48;96.43
4123;BME280;2075;51.062;6.920;2024-02-26T01:26:08;94783.75;;;-144.48;99.06
4123;BME280;2075;51.062;6.920;2024-02-26T01:28:56;94777.66;;;-144.48;100.00
4123;BME280;2075;51.062;6.920;2024-02-26T01:31:41;94765.47;;;-144.48;100.00
4123;BME280;2075;51.062;6.920;2024-02-26T01:34:27;94769.53;;;-144.48;100.00
4123;BME280;2075;51.062;6.920;2024-02-26T01:37:13;94761.41;;;-144.48;100.00
4123;BME280;2075;51.062;6.920;2024-02-26T01:39:58;94781.72;;;-144.48;100.00
4123;BME280;2075;51.062;6.920;2024-02-26T01:42:44;94814.22;;;-144.48;100.00
4123;BME280;2075;51.062;6.920;2024-02-26T01:45:31;94785.78;;;-144.48;100.00
4123;BME280;2075;51.062;6.920;2024-02-26T01:48:17;94820.31;;;-144.48;100.00
4123;BME280;2075;51.062;6.920;2024-02-26T01:51:02;94830.47;;;-144.48;100.00
4123;BME280;2075;51.062;6.920;2024-02-26T01:53:48;94797.97;;;-144.48;100.00
4123;BME280;2075;51.062;6.920;2024-02-26T01:56:36;94834.53;;;-144.48;100.00
4123;BME280;2075;51.062;6.920;2024-02-26T01:59:24;94802.03;;;-144.48;100.00
4123;BME280;2075;51.062;6.920;2024-02-26T02:02:11;94802.03;;;-144.48;100.00
4123;BME280;2075;51.062;6.920;2024-02-26T02:04:57;94804.06;;;-144.48;100.00
4123;BME280;2075;51.062;6.920;2024-02-26T02:07:45;94806.09;;;-144.48;100.00
4123;BME280;2075;51.062;6.920;2024-02-26T02:10:32;94781.72;;;-144.48;100.00
4123;BME280;2075;51.062;6.920;2024-02-26T02:13:18;94797.97;;;-144.48;100.00
4123;BME280;2075;51.062;6.920;2024-02-26T02:16:03;94773.59;;;-144.48;100.00
4123;BME280;2075;51.062;6.920;2024-02-26T02:19:08;94791.88;;;-144.48;100.00
4123;BME280;2075;51.062;6.920;2024-02-26T02:21:55;94747.19;;;-144.48;100.00
4123;BME280;2075;51.062;6.920;2024-02-26T02:24:40;94789.84;;;-144.48;100.00
4123;BME280;2075;51.062;6.920;2024-02-26T02:30:02;94741.06;;;-144.48;100.00
4123;BME280;2075;51.062;6.920;2024-02-26T02:32:47;94739.03;;;-144.48;100.00
4123;BME280;2075;51.062;6.920;2024-02-26T02:35:32;94753.28;;;-144.48;100.00
4123;BME280;2075;51.062;6.920;2024-02-26T02:38:19;94753.28;;;-144.48;100.00
4123;BME280;2075;51.062;6.920;2024-02-26T02:41:06;94712.63;;;-144.48;100.00
4123;BME280;2075;51.062;6.920;2024-02-26T02:43:53;94759.38;;;-144.48;100.00
4123;BME280;2075;51.062;6.920;2024-02-26T02:46:38;94765.47;;;-144.48;100.00
4123;BME280;2075;51.062;6.920;2024-02-26T02:49:29;94737.00;;;-144.48;100.00
4123;BME280;2075;51.062;6.920;2024-02-26T02:52:14;94667.94;;;-144.48;100.00
4123;BME280;2075;51.062;6.920;2024-02-26T02:55:01;94651.66;;;-144.48;100.00
4123;BME280;2075;51.062;6.920;2024-02-26T02:57:46;94627.28;;;-144.48;100.00
4123;BME280;2075;51.062;6.920;2024-02-26T03:00:32;94578.53;;;-144.48;100.00
4123;BME280;2075;51.062;6.920;2024-02-26T03:03:17;94527.72;;;-144.48;100.00
4123;BME280;2075;51.062;6.920;2024-02-26T03:06:03;94576.50;;;-144.48;100.00
4123;BME280;2075;51.062;6.920;2024-02-26T03:08:48;94552.13;;;-144.48;100.00
4123;BME280;2075;51.062;6.920;2024-02-26T03:11:35;94493.19;;;-144.48;100.00
4123;BME280;2075;51.062;6.920;2024-02-26T03:14:20;94391.59;;;-144.48;100.00
4123;BME280;2075;51.062;6.920;2024-02-26T03:17:06;94521.63;;;-144.48;100.00
4123;BME280;2075;51.062;6.920;2024-02-26T03:19:52;94483.03;;;-144.48;100.00
4123;BME280;2075;51.062;6.920;2024-02-26T03:22:38;94359.09;;;-144.48;100.00
4123;BME280;2075;51.062;6.920;2024-02-26T03:25:23;94493.19;;;-144.48;100.00
4123;BME280;2075;51.062;6.920;2024-02-26T03:28:10;94521.63;;;-144.48;100.00
4123;BME280;2075;51.062;6.920;2024-02-26T03:31:03;94598.84;;;-144.48;100.00
4123;BME280;2075;51.062;6.920;2024-02-26T03:34:00;94580.56;;;-144.48;100.00
4123;BME280;2075;51.062;6.920;2024-02-26T03:36:45;94474.91;;;-144.48;100.00
4123;BME280;2075;51.062;6.920;2024-02-26T03:39:31;94135.63;;;-144.48;100.00
4123;BME280;2075;51.062;6.920;2024-02-26T03:42:17;93761.81;;;-144.48;100.00
4123;BME280;2075;51.062;6.920;2024-02-26T03:45:05;93530.25;;;-144.48;100.00
4123;BME280;2075;51.062;6.920;2024-02-26T03:47:51;92953.44;;;-144.48;100.00
4123;BME280;2075;51.062;6.920;2024-02-26T03:50:36;93540.41;;;-144.48;100.00
4123;BME280;2075;51.062;6.920;2024-02-26T03:53:22;92549.31;;;-144.48;100.00
4123;BME280;2075;51.062;6.920;2024-02-26T03:56:08;92342.19;;;-144.48;100.00
4123;BME280;2075;51.062;6.920;2024-02-26T03:58:56;92912.81;;;-144.48;100.00
4123;BME280;2075;51.062;6.920;2024-02-26T04:01:46;92539.16;;;-144.48;100.00
4123;BME280;2075;51.062;6.920;2024-02-26T04:04:34;92498.53;;;-144.48;100.00
4123;BME280;2075;51.062;6.920;2024-02-26T04:07:19;91511.81;;;-144.48;100.00
4123;BME280;2075;51.062;6.920;2024-02-26T04:10:08;90797.31;;;-144.48;100.00
4123;BME280;2075;51.062;6.920;2024-02-26T04:12:54;90876.47;;;-144.48;100.00
4123;BME280;2075;51.062;6.920;2024-02-26T04:15:39;87723.78;;;-144.48;100.00
4123;BME280;2075;51.062;6.920;2024-02-26T04:18:27;89455.97;;;-144.48;100.00
4123;BME280;2075;51.062;6.920;2024-02-26T04:21:13;91907.69;;;-144.48;100.00
4123;BME280;2075;51.062;6.920;2024-02-26T04:24:03;92799.09;;;-144.48;100.00
4123;BME280;2075;51.062;6.920;2024-02-26T04:26:48;93522.13;;;-144.48;100.00
4123;BME280;2075;51.062;6.920;2024-02-26T04:29:34;93739.47;;;-144.48;100.00
4123;BME280;2075;51.062;6.920;2024-02-26T04:32:19;93993.41;;;-144.48;100.00
4123;BME280;2075;51.062;6.920;2024-02-26T04:35:06;94038.09;;;-144.48;100.00
4123;BME280;2075;51.062;6.920;2024-02-26T04:37:55;93644.00;;;-144.48;100.00
4123;BME280;2075;51.062;6.920;2024-02-26T04:40:42;93501.81;;;-144.48;100.00
4123;BME280;2075;51.062;6.920;2024-02-26T04:43:28;92845.81;;;-144.48;100.00
4123;BME280;2075;51.062;6.920;2024-02-26T04:46:14;89054.28;;;-144.48;100.00
4123;BME280;2075;51.062;6.920;2024-02-26T04:48:59;90358.94;;;-144.48;100.00
4123;BME280;2075;51.062;6.920;2024-02-26T04:51:46;90214.84;;;-144.48;100.00
4123;BME280;2075;51.062;6.920;2024-02-26T04:54:32;88565.44;;;-144.48;100.00
4123;BME280;2075;51.062;6.920;2024-02-26T04:57:21;82362.34;;;-144.48;100.00
4123;BME280;2075;51.062;6.920;2024-02-26T05:00:16;84059.44;;;-144.48;100.00
4123;BME280;2075;51.062;6.920;2024-02-26T05:03:02;77039.53;;;-144.48;100.00
4123;BME280;2075;51.062;6.920;2024-02-26T05:05:50;60169.00;;;-144.48;100.00
4123;BME280;2075;51.062;6.920;2024-02-26T05:08:38;49115.28;;;-144.48;100.00
4123;BME280;2075;51.062;6.920;2024-02-26T05:11:23;40144.72;;;-144.48;100.00
4123;BME280;2075;51.062;6.920;2024-02-26T05:14:09;36307.50;;;-144.48;100.00
4123;BME280;2075;51.062;6.920;2024-02-26T05:16:55;31708.63;;;-144.48;100.00
4123;BME280;2075;51.062;6.920;2024-02-26T05:19:40;26351.25;;;-144.48;100.00
4123;BME280;2075;51.062;6.920;2024-02-26T05:22:29;23293.75;;;-144.48;100.00
4123;BME280;2075;51.062;6.920;2024-02-26T05:25:19;21257.00;;;-144.48;100.00
4123;BME280;2075;51.062;6.920;2024-02-26T05:28:05;23293.75;;;-144.48;100.00
4123;BME280;2075;51.062;6.920;2024-02-26T05:30:51;23803.16;;;-144.48;100.00
4123;BME280;2075;51.062;6.920;2024-02-26T05:33:36;21002.47;;;-144.48;100.00
4123;BME280;2075;51.062;6.920;2024-02-26T05:36:22;19475.84;;;-144.48;100.00
4123;BME280;2075;51.062;6.920;2024-02-26T05:39:07;17441.41;;;-144.48;100.00
4123;BME280;2075;51.062;6.920;2024-02-26T05:41:57;18204.19;;;-144.48;100.00
4123;BME280;2075;51.062;6.920;2024-02-26T05:44:42;16424.66;;;-144.48;100.00
4123;BME280;2075;51.062;6.920;2024-02-26T05:47:28;12614.66;;;-144.48;100.00
4123;BME280;2075;51.062;6.920;2024-02-26T05:50:16;12360.81;;;-144.48;100.00
4123;BME280;2075;51.062;6.920;2024-02-26T05:53:07;10330.75;;;-144.48;100.00
4123;BME280;2075;51.062;6.920;2024-02-26T05:55:53;7541.47;;;-144.48;100.00
4123;BME280;2075;51.062;6.920;2024-02-26T05:58:42;7288.00;;;-144.48;100.00
4123;BME280;2075;51.062;6.920;2024-02-26T06:01:28;8555.47;;;-144.48;100.00
4123;BME280;2075;51.062;6.920;2024-02-26T06:04:16;9062.59;;;-144.48;100.00
4123;BME280;2075;51.062;6.920;2024-02-26T06:07:02;10584.44;;;-144.48;100.00
4123;BME280;2075;51.062;6.920;2024-02-26T06:09:52;10584.44;;;-144.48;100.00
4123;BME280;2075;51.062;6.920;2024-02-26T06:12:38;9062.59;;;-144.48;100.00
4123;BME280;2075;51.062;6.920;2024-02-26T06:15:24;9823.44;;;-144.48;100.00
4123;BME280;2075;51.062;6.920;2024-02-26T06:18:13;7034.56;;;-144.48;100.00
4123;BME280;2075;51.062;6.920;2024-02-26T06:20:59;4754.53;;;-144.48;100.00
4123;BME280;2075;51.062;6.920;2024-02-26T06:23:46;4754.53;;;-144.48;100.00
4123;BME280;2075;51.062;6.920;2024-02-26T06:26:35;5007.78;;;-144.48;100.00
4123;BME280;2075;51.062;6.920;2024-02-26T06:29:21;5007.78;;;-144.48;100.00
4123;BME280;2075;51.062;6.920;2024-02-26T06:32:09;4754.53;;;-144.48;100.00
4123;BME280;2075;51.062;6.920;2024-02-26T06:34:57;5767.69;;;-144.48;100.00
4123;BME280;2075;51.062;6.920;2024-02-26T06:37:47;5261.06;;;-144.48;100.00
4123;BME280;2075;51.062;6.920;2024-02-26T06:40:35;6527.75;;;-144.48;100.00
4123;BME280;2075;51.062;6.920;2024-02-26T06:43:22;6781.16;;;-144.48;100.00
4123;BME280;2075;51.062;6.920;2024-02-26T06:46:10;4754.53;;;-144.48;100.00
4123;BME280;2075;51.062;6.920;2024-02-26T06:48:56;3741.69;;;-144.48;100.00
4123;BME280;2075;51.062;6.920;2024-02-26T06:51:42;2476.06;;;-144.48;100.00
4123;BME280;2075;51.062;6.920;2024-02-26T06:54:27;1463.94;;;-144.48;100.00
4123;BME280;2075;51.062;6.920;2024-02-26T06:57:14;1210.94;;;-144.48;100.00
4123;BME280;2075;51.062;6.920;2024-02-26T07:00:00;957.97;;;-144.48;100.00
4123;BME280;2075;51.062;6.920;2024-02-26T07:02:48;2476.06;;;-144.48;100.00
4123;BME280;2075;51.062;6.920;2024-02-26T07:05:35;1969.97;;;-144.48;100.00
4123;BME280;2075;51.062;6.920;2024-02-26T07:08:21;452.09;;;-144.48;100.00
4123;BME280;2075;51.062;6.920;2024-02-26T07:11:07;705.03;;;-144.48;100.00
4123;BME280;2075;51.062;6.920;2024-02-26T07:13:56;-1570.63;;;-144.48;100.00
4123;BME280;2075;51.062;6.920;2024-02-26T07:16:45;-306.56;;;-144.48;100.00
4123;BME280;2075;51.062;6.920;2024-02-26T07:19:32;-1317.84;;;-144.48;100.00
4123;BME280;2075;51.062;6.920;2024-02-26T07:22:22;-1317.84;;;-144.48;100.00
4123;BME280;2075;51.062;6.920;2024-02-26T07:25:08;-1570.63;;;-144.48;100.00
4123;BME280;2075;51.062;6.920;2024-02-26T07:27:57;-559.44;;;-144.48;100.00
4123;BME280;2075;51.062;6.920;2024-02-26T07:30:42;-1570.63;;;-144.48;100.00
4123;BME280;2075;51.062;6.920;2024-02-26T07:33:28;-1065.06;;;-144.48;100.00
4123;BME280;2075;51.062;6.920;2024-02-26T07:36:15;-53.69;;;-144.48;100.00
4123;BME280;2075;51.062;6.920;2024-02-26T07:39:02;-306.56;;;-144.48;100.00
4123;BME280;2075;51.062;6.920;2024-02-26T07:41:53;705.03;;;-144.48;100.00
4123;BME280;2075;51.062;6.920;2024-02-26T07:44:38;2982.25;;;-144.48;100.00
4123;BME280;2075;51.062;6.920;2024-02-26T07:47:27;1463.94;;;-144.48;100.00
4123;BME280;2075;51.062;6.920;2024-02-26T07:50:14;3994.88;;;-144.48;100.00
4123;BME280;2075;51.062;6.920;2024-02-26T07:53:01;5007.78;;;-144.48;100.00
4123;BME280;2075;51.062;6.920;2024-02-26T07:55:51;8555.47;;;-144.48;100.00
4123;BME280;2075;51.062;6.920;2024-02-26T07:58:37;7034.56;;;-144.48;100.00
4123;BME280;2075;51.062;6.920;2024-02-26T08:01:23;10077.09;;;-144.48;100.00
4123;BME280;2075;51.062;6.920;2024-02-26T08:04:12;9316.19;;;-144.48;100.00
4123;BME280;2075;51.062;6.920;2024-02-26T08:06:57;9569.81;;;-144.48;100.00
4123;BME280;2075;51.062;6.920;2024-02-26T08:09:43;11345.63;;;-144.48;100.00
4123;BME280;2075;51.062;6.920;2024-02-26T08:12:30;11091.88;;;-144.48;100.00
4123;BME280;2075;51.062;6.920;2024-02-26T08:15:16;11599.41;;;-144.48;100.00
4123;BME280;2075;51.062;6.920;2024-02-26T08:18:03;7541.47;;;-144.48;100.00
4123;BME280;2075;51.062;6.920;2024-02-26T08:20:49;3994.88;;;-144.48;100.00
4123;BME280;2075;51.062;6.920;2024-02-26T08:23:34;2476.06;;;-144.48;100.00
4123;BME280;2075;51.062;6.920;2024-02-26T08:26:20;957.97;;;-144.48;100.00
4123;BME280;2075;51.062;6.920;2024-02-26T08:29:08;452.09;;;-144.48;100.00
4123;BME280;2075;51.062;6.920;2024-02-26T08:31:54;-53.69;;;-144.48;100.00
4123;BME280;2075;51.062;6.920;2024-02-26T08:34:39;199.19;;;-144.48;100.00
4123;BME280;2075;51.062;6.920;2024-02-26T08:37:25;452.09;;;-144.48;100.00
4123;BME280;2075;51.062;6.920;2024-02-26T08:40:11;-306.56;;;-144.48;100.00
4123;BME280;2075;51.062;6.920;2024-02-26T08:42:57;-1065.06;;;-144.48;100.00
4123;BME280;2075;51.062;6.920;2024-02-26T08:45:44;-2076.13;;;-144.48;100.00
4123;BME280;2075;51.062;6.920;2024-02-26T08:48:29;-812.25;;;-144.48;100.00
4123;BME280;2075;51.062;6.920;2024-02-26T08:51:15;-2076.13;;;-144.48;100.00
4123;BME280;2075;51.062;6.920;2024-02-26T08:54:01;-3339.50;;;-144.48;100.00
4123;BME280;2075;51.062;6.920;2024-02-26T08:56:46;-4097.28;;;-144.48;100.00
4123;BME280;2075;51.062;6.920;2024-02-26T08:59:32;-2834.19;;;-144.48;100.00
4123;BME280;2075;51.062;6.920;2024-02-26T09:02:19;-1317.84;;;-144.48;100.00
4123;BME280;2075;51.062;6.920;2024-02-26T09:05:05;-1317.84;;;-144.48;100.00
4123;BME280;2075;51.062;6.920;2024-02-26T09:07:51;-3086.84;;;-144.48;100.00
4123;BME280;2075;51.062;6.920;2024-02-26T09:10:38;-3339.50;;;-144.48;100.00
4123;BME280;2075;51.062;6.920;2024-02-26T09:13:23;-1065.06;;;-144.48;100.00
4123;BME280;2075;51.062;6.920;2024-02-26T09:16:11;1716.94;;;-144.48;100.00
4123;BME280;2075;51.062;6.920;2024-02-26T09:18:59;3235.38;;;-144.48;100.00
4123;BME280;2075;51.062;6.920;2024-02-26T09:21:45;3741.69;;;-144.48;100.00
4123;BME280;2075;51.062;6.920;2024-02-26T09:24:31;6527.75;;;-144.48;100.00
4123;BME280;2075;51.062;6.920;2024-02-26T09:27:16;9316.19;;;-144.48;100.00
4123;BME280;2075;51.062;6.920;2024-02-26T09:30:02;7034.56;;;-144.48;100.00
4123;BME280;2075;51.062;6.920;2024-02-26T09:32:49;9316.19;;;-144.48;100.00
4123;BME280;2075;51.062;6.920;2024-02-26T09:35:36;9316.19;;;-144.48;100.00
4123;BME280;2075;51.062;6.920;2024-02-26T09:38:22;12360.81;;;-144.48;100.00
4123;BME280;2075;51.062;6.920;2024-02-26T09:41:14;12360.81;;;-144.48;100.00
4123;BME280;2075;51.062;6.920;2024-02-26T09:44:02;6781.16;;;-144.48;100.00
4123;BME280;2075;51.062;6.920;2024-02-26T09:46:51;7288.00;;;-144.48;100.00
4123;BME280;2075;51.062;6.920;2024-02-26T09:49:38;10838.16;;;-144.48;100.00
4123;BME280;2075;51.062;6.920;2024-02-26T09:52:26;13122.41;;;-144.48;100.00
4123;BME280;2075;51.062;6.920;2024-02-26T09:55:14;12107.00;;;-144.48;100.00
4123;BME280;2075;51.062;6.920;2024-02-26T09:58:00;12614.66;;;-144.48;100.00
4123;BME280;2075;51.062;6.920;2024-02-26T10:00:49;14900.13;;;-144.48;100.00
4123;BME280;2075;51.062;6.920;2024-02-26T10:03:39;13376.31;;;-144.48;100.00
4123;BME280;2075;51.062;6.920;2024-02-26T10:06:26;8555.47;;;-144.48;100.00
4123;BME280;2075;51.062;6.920;2024-02-26T10:09:14;11599.41;;;-144.48;100.00
4123;BME280;2075;51.062;6.920;2024-02-26T10:12:01;10077.09;;;-144.48;100.00
4123;BME280;2075;51.062;6.920;2024-02-26T10:14:46;9823.44;;;-144.48;100.00
4123;BME280;2075;51.062;6.920;2024-02-26T10:17:32;9316.19;;;-144.48;100.00
4123;BME280;2075;51.062;6.920;2024-02-26T10:20:20;14138.13;;;-144.48;100.00
4123;BME280;2075;51.062;6.920;2024-02-26T10:23:07;16170.53;;;-144.48;100.00
4123;BME280;2075;51.062;6.920;2024-02-26T10:25:55;18712.78;;;-144.48;100.00
4123;BME280;2075;51.062;6.920;2024-02-26T10:28:42;23803.16;;;-144.48;100.00
4123;BME280;2075;51.062;6.920;2024-02-26T10:31:29;24822.16;;;-144.48;100.00
4123;BME280;2075;51.062;6.920;2024-02-26T10:34:15;25331.78;;;-144.48;100.00
4123;BME280;2075;51.062;6.920;2024-02-26T10:37:01;23548.44;;;-144.48;100.00
4123;BME280;2075;51.062;6.920;2024-02-26T10:39:48;19730.22;;;-144.48;100.00
4123;BME280;2075;51.062;6.920;2024-02-26T10:42:37;23039.09;;;-144.48;100.00
4123;BME280;2075;51.062;6.920;2024-02-26T10:45:22;22020.63;;;-144.48;100.00
4123;BME280;2075;51.062;6.920;2024-02-26T10:48:10;18712.78;;;-144.48;100.00
4123;BME280;2075;51.062;6.920;2024-02-26T10:50:57;24567.38;;;-144.48;100.00
4123;BME280;2075;51.062;6.920;2024-02-26T10:53:44;23293.75;;;-144.48;100.00
4123;BME280;2075;51.062;6.920;2024-02-26T10:56:33;25841.47;;;-144.48;100.00
4123;BME280;2075;51.062;6.920;2024-02-26T10:59:22;29156.41;;;-144.48;100.00
4123;BME280;2075;51.062;6.920;2024-02-26T11:02:09;35796.19;;;-144.48;100.00
4123;BME280;2075;51.062;6.920;2024-02-26T11:04:56;47319.28;;;-144.48;100.00
4123;BME280;2075;51.062;6.920;2024-02-26T11:07:43;45780.56;;;-144.48;100.00
4123;BME280;2075;51.062;6.920;2024-02-26T11:10:31;39121.03;;;-144.48;100.00
4123;BME280;2075;51.062;6.920;2024-02-26T11:13:18;31708.63;;;-144.48;100.00
4123;BME280;2075;51.062;6.920;2024-02-26T11:16:07;31453.31;;;-144.48;100.00
4123;BME280;2075;51.062;6.920;2024-02-26T11:18:55;29921.88;;;-144.48;100.00
4123;BME280;2075;51.062;6.920;2024-02-26T11:21:43;30687.50;;;-144.48;100.00
4123;BME280;2075;51.062;6.920;2024-02-26T11:24:30;25841.47;;;-144.48;100.00
4123;BME280;2075;51.062;6.920;2024-02-26T11:27:18;31198.03;;;-144.48;100.00
4123;BME280;2075;51.062;6.920;2024-02-26T11:30:09;30432.28;;;-144.48;100.00
4123;BME280;2075;51.062;6.920;2024-02-26T11:32:57;36307.50;;;-144.48;100.00
4123;BME280;2075;51.062;6.920;2024-02-26T11:35:44;35284.97;;;-144.48;100.00
4123;BME280;2075;51.062;6.920;2024-02-26T11:38:30;32985.44;;;-144.48;100.00
4123;BME280;2075;51.062;6.920;2024-02-26T11:41:18;36818.88;;;-144.48;100.00
4123;BME280;2075;51.062;6.920;2024-02-26T11:44:04;36563.16;;;-144.48;100.00
4123;BME280;2075;51.062;6.920;2024-02-26T11:46:51;38609.28;;;-144.48;100.00
4123;BME280;2075;51.062;6.920;2024-02-26T11:49:38;42449.16;;;-144.48;100.00
4123;BME280;2075;51.062;6.920;2024-02-26T11:52:24;41424.75;;;-144.48;100.00
4123;BME280;2075;51.062;6.920;2024-02-26T11:55:09;46036.97;;;-144.48;100.00
4123;BME280;2075;51.062;6.920;2024-02-26T11:57:55;46293.41;;;-144.48;100.00
4123;BME280;2075;51.062;6.920;2024-02-26T12:00:40;47575.78;;;-144.48;100.00
4123;BME280;2075;51.062;6.920;2024-02-26T12:03:29;40912.69;;;-144.48;100.00
4123;BME280;2075;51.062;6.920;2024-02-26T12:06:17;40912.69;;;-144.48;100.00
4123;BME280;2075;51.062;6.920;2024-02-26T12:09:03;31453.31;;;-144.48;100.00
4123;BME280;2075;51.062;6.920;2024-02-26T12:11:50;29921.88;;;-144.48;100.00
4123;BME280;2075;51.062;6.920;2024-02-26T12:14:40;21002.47;;;-144.48;100.00
4123;BME280;2075;51.062;6.920;2024-02-26T12:17:26;17695.66;;;-144.48;100.00
4123;BME280;2075;51.062;6.920;2024-02-26T12:20:13;21002.47;;;-144.48;100.00
4123;BME280;2075;51.062;6.920;2024-02-26T12:23:01;19221.47;;;-144.48;100.00
4123;BME280;2075;51.062;6.920;2024-02-26T12:25:47;24822.16;;;-144.48;100.00
4123;BME280;2075;51.062;6.920;2024-02-26T12:28:33;21511.53;;;-144.48;100.00
4123;BME280;2075;51.062;6.920;2024-02-26T12:31:19;22275.22;;;-144.48;100.00
4123;BME280;2075;51.062;6.920;2024-02-26T12:34:07;34007.25;;;-144.48;100.00
4123;BME280;2075;51.062;6.920;2024-02-26T12:36:55;37841.84;;;-144.48;100.00
4123;BME280;2075;51.062;6.920;2024-02-26T12:39:42;41936.91;;;-144.48;100.00
4123;BME280;2075;51.062;6.920;2024-02-26T12:42:29;44498.88;;;-144.48;100.00
4123;BME280;2075;51.062;6.920;2024-02-26T12:45:16;53738.03;;;-144.48;100.00
4123;BME280;2075;51.062;6.920;2024-02-26T12:48:05;61971.84;;;-144.48;100.00
4123;BME280;2075;51.062;6.920;2024-02-26T12:50:51;63260.19;;;-144.48;100.00
4123;BME280;2075;51.062;6.920;2024-02-26T12:53:37;64806.84;;;-144.48;100.00
4123;BME280;2075;51.062;6.920;2024-02-26T12:56:26;76706.00;;;-144.48;100.00
4123;BME280;2075;51.062;6.920;2024-02-26T12:59:12;77781.53;;;-144.48;100.00
4123;BME280;2075;51.062;6.920;2024-02-26T13:01:58;77743.13;;;-144.48;100.00
4123;BME280;2075;51.062;6.920;2024-02-26T13:04:44;59396.66;;;-144.48;100.00
4123;BME280;2075;51.062;6.920;2024-02-26T13:07:31;67386.16;;;-144.48;100.00
4123;BME280;2075;51.062;6.920;2024-02-26T13:10:17;76922.31;;;-144.48;100.00
4123;BME280;2075;51.062;6.920;2024-02-26T13:13:06;88622.22;;;-144.48;100.00
4123;BME280;2075;51.062;6.920;2024-02-26T13:16:01;92354.38;;;-144.48;100.00
4123;BME280;2075;51.062;6.920;2024-02-26T13:18:48;88530.94;;;-144.48;100.00
4123;BME280;2075;51.062;6.920;2024-02-26T13:21:33;92937.19;;;-144.48;100.00
4123;BME280;2075;51.062;6.920;2024-02-26T13:24:22;92644.75;;;-144.48;100.00
4123;BME280;2075;51.062;6.920;2024-02-26T13:27:09;93704.94;;;-144.48;100.00
4123;BME280;2075;51.062;6.920;2024-02-26T13:30:09;94405.81;;;-144.48;100.00
4123;BME280;2075;51.062;6.920;2024-02-26T13:32:56;93843.06;;;-144.48;100.00
4123;BME280;2075;51.062;6.920;2024-02-26T13:35:52;93122.00;;;-144.48;100.00
4123;BME280;2075;51.062;6.920;2024-02-26T13:38:38;90507.06;;;-144.48;100.00
4123;BME280;2075;51.062;6.920;2024-02-26T13:41:24;75998.63;;;-144.48;100.00
4123;BME280;2075;51.062;6.920;2024-02-26T13:44:10;62487.13;;;-144.48;100.00
4123;BME280;2075;51.062;6.920;2024-02-26T13:46:57;42961.47;;;-144.48;100.00
4123;BME280;2075;51.062;6.920;2024-02-26T13:49:44;30177.06;;;-144.48;100.00
4123;BME280;2075;51.062;6.920;2024-02-26T13:52:29;35029.38;;;-144.48;100.00
4123;BME280;2075;51.062;6.920;2024-02-26T13:55:17;38609.28;;;-144.48;100.00
4123;BME280;2075;51.062;6.920;2024-02-26T13:58:03;47319.28;;;-144.48;100.00
4123;BME280;2075;51.062;6.920;2024-02-26T14:00:50;49115.28;;;-144.48;100.00
4123;BME280;2075;51.062;6.920;2024-02-26T14:03:38;38609.28;;;-144.48;100.00
4123;BME280;2075;51.062;6.920;2024-02-26T14:06:24;42449.16;;;-144.48;100.00
4123;BME280;2075;51.062;6.920;2024-02-26T14:09:10;50142.03;;;-144.48;100.00
4123;BME280;2075;51.062;6.920;2024-02-26T14:12:04;50912.28;;;-144.48;100.00
4123;BME280;2075;51.062;6.920;2024-02-26T14:14:50;49371.94;;;-144.48;100.00
4123;BME280;2075;51.062;6.920;2024-02-26T14:17:41;43730.06;;;-144.48;100.00
4123;BME280;2075;51.062;6.920;2024-02-26T14:20:30;45011.50;;;-144.48;100.00
4123;BME280;2075;51.062;6.920;2024-02-26T14:23:23;40912.69;;;-144.48;100.00
4123;BME280;2075;51.062;6.920;2024-02-26T14:26:10;33496.31;;;-144.48;100.00
4123;BME280;2075;51.062;6.920;2024-02-26T14:28:56;40656.66;;;-144.48;100.00
4123;BME280;2075;51.062;6.920;2024-02-26T14:31:43;66612.16;;;-144.48;100.00
4123;BME280;2075;51.062;6.920;2024-02-26T14:34:33;77573.28;;;-144.48;100.00
4123;BME280;2075;51.062;6.920;2024-02-26T14:37:22;83000.16;;;-144.48;100.00
4123;BME280;2075;51.062;6.920;2024-02-26T14:40:12;85976.25;;;-144.48;100.00
4123;BME280;2075;51.062;6.920;2024-02-26T14:43:03;91193.09;;;-144.48;100.00